createdAt,value
2023-02-09T00:01:37.444Z,77.03
2023-02-09T00:06:40.044Z,59.77
2023-02-09T00:12:01.004Z,60.47
2023-02-09T00:17:04.542Z,56.83
2023-02-09T00:22:07.183Z,58.90
2023-02-09T00:27:09.741Z,58.77
2023-02-09T00:32:12.314Z,63.27
2023-02-09T00:37:15.802Z,65.43
2023-02-09T00:42:20.816Z,58.53
2023-02-09T00:47:23.232Z,63.13
2023-02-09T00:52:25.708Z,76.67
2023-02-09T00:57:29.040Z,58.80
2023-02-09T01:02:32.003Z,62.63
2023-02-09T01:07:35.048Z,58.60
2023-02-09T01:12:40.655Z,58.67
2023-02-09T01:17:43.055Z,52.63
2023-02-09T01:22:47.442Z,43.87
2023-02-09T01:27:50.271Z,46.43
2023-02-09T01:32:52.779Z,45.00
2023-02-09T01:37:55.908Z,39.27
2023-02-09T01:42:58.336Z,45.17
2023-02-09T01:48:03.708Z,48.87
2023-02-09T01:53:07.688Z,46.67
2023-02-09T01:58:14.300Z,50.50
2023-02-09T02:03:21.221Z,62.13
2023-02-09T02:08:29.726Z,55.83
2023-02-09T02:13:32.183Z,49.53
2023-02-09T02:18:40.707Z,46.80
2023-02-09T02:24:25.299Z,45.37
2023-02-09T02:29:36.778Z,43.83
2023-02-09T02:35:19.629Z,39.63
2023-02-09T02:40:38.946Z,41.77
2023-02-09T02:45:48.878Z,37.97
2023-02-09T02:50:57.293Z,38.43
2023-02-09T02:56:10.713Z,39.97
2023-02-09T03:01:17.490Z,41.47
2023-02-09T03:06:20.012Z,40.13
2023-02-09T03:11:26.928Z,41.33
2023-02-09T03:16:46.248Z,46.23
2023-02-09T03:21:57.653Z,45.17
2023-02-09T03:27:25.071Z,45.67
2023-02-09T03:32:28.376Z,44.63
2023-02-09T03:37:30.772Z,45.40
2023-02-09T03:42:33.644Z,57.97
2023-02-09T03:47:36.185Z,51.47
2023-02-09T03:52:38.592Z,52.83
2023-02-09T03:57:41.040Z,48.17
2023-02-09T04:02:44.080Z,43.37
2023-02-09T04:07:46.484Z,43.00
2023-02-09T04:12:49.192Z,46.37
2023-02-09T04:17:51.662Z,52.00
2023-02-09T04:22:54.107Z,56.30
2023-02-09T04:27:56.806Z,59.73
2023-02-09T04:32:59.350Z,61.17
2023-02-09T04:38:01.855Z,61.37
2023-02-09T04:43:04.680Z,59.33
2023-02-09T04:48:07.940Z,54.67
2023-02-09T04:53:10.671Z,52.10
2023-02-09T04:58:34.684Z,50.70
2023-02-09T05:03:37.105Z,55.70
2023-02-09T05:08:39.540Z,58.97
2023-02-09T05:13:42.615Z,60.23
2023-02-09T05:18:45.317Z,59.20
2023-02-09T05:23:47.813Z,57.90
2023-02-09T05:28:50.312Z,60.77
2023-02-09T05:33:52.849Z,56.83
2023-02-09T05:38:55.345Z,53.40
2023-02-09T05:43:58.121Z,56.07
2023-02-09T05:49:00.830Z,61.93
2023-02-09T05:54:03.418Z,67.23
2023-02-09T05:59:05.873Z,70.83
2023-02-09T06:04:09.261Z,66.87
2023-02-09T06:09:12.010Z,67.80
2023-02-09T06:14:14.449Z,86.33
2023-02-09T06:19:20.123Z,83.47
2023-02-09T06:24:22.636Z,70.03
2023-02-09T06:29:25.042Z,62.83
2023-02-09T06:34:27.586Z,75.17
2023-02-09T06:39:30.197Z,76.97
2023-02-09T06:44:33.340Z,72.30
2023-02-09T06:49:35.823Z,79.90
2023-02-09T06:54:38.624Z,79.37
2023-02-09T06:59:41.179Z,66.33
2023-02-09T07:04:43.631Z,83.13
2023-02-09T07:09:46.078Z,96.37
2023-02-09T07:14:51.308Z,80.00
2023-02-09T07:19:53.879Z,97.67
2023-02-09T07:24:56.473Z,96.90
2023-02-09T07:30:00.924Z,93.60
2023-02-09T07:35:03.775Z,84.87
2023-02-09T07:40:06.535Z,92.17
2023-02-09T07:45:10.165Z,89.97
2023-02-09T07:50:12.607Z,89.63
2023-02-09T07:55:15.196Z,102.07
2023-02-09T08:00:18.066Z,100.37
2023-02-09T08:05:41.005Z,105.60
2023-02-09T08:10:43.714Z,57.07
2023-02-09T08:15:52.907Z,45.20
2023-02-09T08:20:56.598Z,40.87
2023-02-09T08:26:04.217Z,39.47
2023-02-09T08:31:06.716Z,36.73
2023-02-09T08:36:10.920Z,35.50
2023-02-09T08:41:15.315Z,35.73
2023-02-09T08:46:19.501Z,38.00
2023-02-09T08:51:22.286Z,41.73
2023-02-09T08:56:24.825Z,29.50
2023-02-09T09:01:27.249Z,43.97
2023-02-09T09:06:29.791Z,27.10
2023-02-09T09:11:32.228Z,29.93
2023-02-09T09:16:34.740Z,25.37
2023-02-09T09:21:37.306Z,74.20
2023-02-09T09:26:39.713Z,38.17
2023-02-09T09:31:42.185Z,23.60
2023-02-09T09:36:44.763Z,25.57
2023-02-09T09:41:48.946Z,25.43
2023-02-09T09:46:54.656Z,26.60
2023-02-09T09:52:13.118Z,23.67
2023-02-09T09:57:28.677Z,25.70
2023-02-09T10:02:33.022Z,31.17
2023-02-09T10:07:35.996Z,141.57
2023-02-09T10:12:43.345Z,25.67
2023-02-09T10:17:45.745Z,25.67
2023-02-09T10:22:51.805Z,22.20
2023-02-09T10:27:54.259Z,22.33
2023-02-09T10:33:00.408Z,22.00
2023-02-09T10:38:04.171Z,22.20
2023-02-09T10:43:19.257Z,26.73
2023-02-09T10:48:24.581Z,19.67
2023-02-09T10:53:37.232Z,17.40
2023-02-09T10:58:39.876Z,22.87
2023-02-09T11:04:08.005Z,39.50
2023-02-09T11:09:18.417Z,22.03
2023-02-09T11:14:21.823Z,20.97
2023-02-09T11:19:42.344Z,25.13
2023-02-09T11:25:05.110Z,21.40
2023-02-09T11:30:28.856Z,19.60
2023-02-09T11:36:05.872Z,17.37
2023-02-09T11:41:31.794Z,20.17
2023-02-09T11:46:35.868Z,28.53
2023-02-09T11:51:39.959Z,21.07
2023-02-09T11:56:47.359Z,18.67
2023-02-09T12:02:01.956Z,29.83
2023-02-09T12:07:40.828Z,22.00
2023-02-09T12:12:54.990Z,17.80
2023-02-09T12:18:04.644Z,18.87
2023-02-09T12:23:24.466Z,16.60
2023-02-09T12:28:32.929Z,16.23
2023-02-09T12:33:59.787Z,14.60
2023-02-09T12:39:24.835Z,65.37
2023-02-09T12:44:27.235Z,28.57
2023-02-09T12:49:29.785Z,17.03
2023-02-09T12:54:51.082Z,25.40
2023-02-09T12:59:53.573Z,22.90
2023-02-09T13:05:02.211Z,20.10
2023-02-09T13:10:46.209Z,18.33
2023-02-09T13:15:55.040Z,18.10
2023-02-09T13:21:27.798Z,26.57
2023-02-09T13:26:34.966Z,31.43
2023-02-09T13:31:43.012Z,30.47
2023-02-09T13:37:09.711Z,25.13
2023-02-09T13:42:20.832Z,29.13
2023-02-09T13:47:24.242Z,27.70
2023-02-09T13:52:32.429Z,23.87
2023-02-09T13:57:37.584Z,50.63
2023-02-09T14:02:43.933Z,26.90
2023-02-09T14:07:46.558Z,20.80
2023-02-09T14:13:07.923Z,18.03
2023-02-09T14:18:24.304Z,21.97
2023-02-09T14:23:32.761Z,19.83
2023-02-09T14:28:37.292Z,24.17
2023-02-09T14:33:39.711Z,19.53
2023-02-09T14:38:42.792Z,29.47
2023-02-09T14:43:45.358Z,29.97
2023-02-09T14:48:47.873Z,49.37
2023-02-09T14:53:50.563Z,29.50
2023-02-09T14:58:53.442Z,36.63
2023-02-09T15:03:55.860Z,108.40
2023-02-09T15:08:58.353Z,35.13
2023-02-09T15:14:06.640Z,35.60
2023-02-09T15:19:20.588Z,28.80
2023-02-09T15:24:22.978Z,33.10
2023-02-09T15:29:26.020Z,43.70
2023-02-09T15:34:28.389Z,96.20
2023-02-09T15:39:31.600Z,63.07
2023-02-09T15:44:52.509Z,64.03
2023-02-09T15:49:57.491Z,73.27
2023-02-09T15:55:00.058Z,73.03
2023-02-09T16:00:03.057Z,83.53
2023-02-09T16:05:07.414Z,79.30
2023-02-09T16:10:29.799Z,84.00
2023-02-09T16:15:32.286Z,89.60
2023-02-09T16:20:34.907Z,78.73
2023-02-09T16:25:37.297Z,53.80
2023-02-09T16:30:51.810Z,57.20
2023-02-09T16:35:57.323Z,58.20
2023-02-09T16:40:59.747Z,70.03
2023-02-09T16:46:04.753Z,114.90
2023-02-09T16:51:07.369Z,86.67
2023-02-09T16:56:13.078Z,70.40
2023-02-09T17:01:21.803Z,67.93
2023-02-09T17:06:28.413Z,60.50
2023-02-09T17:11:30.793Z,70.93
2023-02-09T17:16:39.911Z,189.30
2023-02-09T17:21:42.684Z,227.80
2023-02-09T17:26:45.332Z,243.33
2023-02-09T17:31:53.464Z,270.50
2023-02-09T17:36:57.095Z,314.77
2023-02-09T17:42:00.488Z,278.20
2023-02-09T17:47:03.506Z,261.90
2023-02-09T17:52:06.033Z,206.90
2023-02-09T17:57:15.391Z,215.43
2023-02-09T18:02:20.242Z,214.30
2023-02-09T18:07:22.638Z,219.03
2023-02-09T18:12:27.093Z,166.60
2023-02-09T18:17:30.244Z,179.73
2023-02-09T18:22:32.651Z,155.23
2023-02-09T18:27:35.112Z,137.77
2023-02-09T18:32:37.513Z,134.20
2023-02-09T18:37:39.921Z,119.60
2023-02-09T18:42:42.658Z,112.93
2023-02-09T18:47:45.131Z,157.70
2023-02-09T18:52:53.358Z,140.43
2023-02-09T18:57:57.708Z,120.63
2023-02-09T19:03:00.697Z,143.33
2023-02-09T19:08:03.537Z,90.77
2023-02-09T19:13:06.527Z,29.30
2023-02-09T19:18:08.934Z,23.43
2023-02-09T19:23:11.371Z,25.63
2023-02-09T19:28:13.870Z,21.57
2023-02-09T19:33:16.297Z,19.03
2023-02-09T19:38:18.678Z,19.03
2023-02-09T19:43:21.358Z,21.87
2023-02-09T19:48:23.950Z,51.00
2023-02-09T19:53:27.338Z,33.23
2023-02-09T19:58:30.081Z,23.43
2023-02-09T20:03:32.857Z,23.10
2023-02-09T20:08:36.581Z,36.87
2023-02-09T20:13:39.495Z,28.83
2023-02-09T20:18:43.484Z,41.23
2023-02-09T20:23:46.782Z,41.70
2023-02-09T20:28:49.632Z,38.43
2023-02-09T20:33:52.761Z,23.57
2023-02-09T20:38:55.204Z,21.50
2023-02-09T20:44:16.191Z,20.97
2023-02-09T20:49:19.664Z,21.70
2023-02-09T20:54:22.173Z,19.77
2023-02-09T20:59:24.863Z,18.23
2023-02-09T21:04:27.731Z,17.23
2023-02-09T21:09:30.396Z,21.30
2023-02-09T21:14:41.802Z,16.50
2023-02-09T21:19:45.093Z,18.90
2023-02-09T21:24:47.562Z,22.40
2023-02-09T21:29:49.962Z,33.87
2023-02-09T21:34:52.373Z,22.57
2023-02-09T21:39:55.834Z,21.10
2023-02-09T21:44:59.715Z,21.60
2023-02-09T21:50:02.668Z,23.53
2023-02-09T21:55:05.432Z,20.93
2023-02-09T22:00:09.450Z,18.63
2023-02-09T22:05:12.263Z,20.33
2023-02-09T22:10:15.361Z,20.70
2023-02-09T22:15:19.197Z,21.03
2023-02-09T22:20:21.610Z,19.10
2023-02-09T22:25:24.056Z,18.67
2023-02-09T22:30:26.564Z,19.67
2023-02-09T22:35:29.653Z,19.20
2023-02-09T22:40:32.025Z,20.73
2023-02-09T22:45:34.371Z,29.83
2023-02-09T22:50:36.821Z,47.00
2023-02-09T22:55:39.252Z,31.70
2023-02-09T23:00:41.723Z,21.57
2023-02-09T23:05:47.742Z,20.47
2023-02-09T23:10:50.367Z,19.70
2023-02-09T23:15:52.814Z,21.07
2023-02-09T23:20:57.468Z,21.57
2023-02-09T23:25:59.848Z,19.83
2023-02-09T23:31:11.127Z,17.97
2023-02-09T23:36:16.555Z,17.53
2023-02-09T23:41:19.653Z,16.40
2023-02-09T23:46:25.774Z,16.97
2023-02-09T23:51:32.454Z,18.30
2023-02-09T23:56:37.370Z,18.23
